»·PEaware :: UAL1389 KBOI-KGEG

UAL1389 :: KBOI-KGEG

FLIGHT INFORMATION

Flight Status: Arrived
Operator:
United Airlines
More flights by this operator :: More flights under this callsign
Pilot: Brandon F. (14792)
Aircraft: Unknown
(A359)
More flights by this aircraft type
Origin: KBOI Boise Air Terminal/Gowen
United States
Destination: KGEG Spokane Intl
United States
More flights between these airports :: More routes between these airports
Route: BOI3 BOI V253 PUW ZOOMR ZOOMR1
File this flight plan on PilotEdge
Remarks:
Altitude:
(Current/Filed)
32,000ft
Speed:
(Current/Filed)
508kts
Departed: 11-Mar-18 01:46 PM
Arrived: 11-Mar-18 02:37 PM
Distance/Time
Traveled:
250nm/0:50
Distance/Time
To Go:
Arrived

Flight Plot

Page will automatically refresh every two minutes.

Flight plan parsing failed; only flown route is shown


Map Options




Map Legend


Flown Route
Filed Route
Departure Airport
Arrival Airport
Navaid (VOR, NDB)
Fix

Horizontal Profiles

Position Reports

Time Latitude Longitude Heading Altitude Ground
Speed
11-Mar-18 13:21 43.569093 -116.222258 272 2885ft 0kts
11-Mar-18 13:22 43.569093 -116.222258 272 2885ft 0kts
11-Mar-18 13:23 43.569093 -116.222258 272 2885ft 0kts
11-Mar-18 13:24 43.569093 -116.222258 272 2885ft 0kts
11-Mar-18 13:25 43.569093 -116.222258 272 2885ft 0kts
11-Mar-18 13:26 43.569093 -116.222258 272 2885ft 0kts
11-Mar-18 13:27 43.569093 -116.222258 272 2885ft 0kts
11-Mar-18 13:28 43.569093 -116.222258 272 2885ft 0kts
11-Mar-18 13:29 43.569093 -116.222258 272 2885ft 0kts
11-Mar-18 13:30 43.569093 -116.222258 272 2885ft 0kts
11-Mar-18 13:31 43.569093 -116.222258 272 2885ft 0kts
11-Mar-18 13:32 43.569093 -116.222258 272 2885ft 0kts
11-Mar-18 13:33 43.569093 -116.222258 272 2885ft 0kts
11-Mar-18 13:34 43.569093 -116.222258 272 2885ft 0kts
11-Mar-18 13:35 43.569093 -116.222258 272 2885ft 0kts
11-Mar-18 13:36 43.569092 -116.222234 272 2885ft 1kts
11-Mar-18 13:37 43.569091 -116.222187 271 2885ft 0kts
11-Mar-18 13:38 43.569091 -116.222187 271 2885ft 0kts
11-Mar-18 13:39 43.569091 -116.222187 271 2885ft 0kts
11-Mar-18 13:40 43.569091 -116.222187 271 2885ft 0kts
11-Mar-18 13:41 43.568819 -116.223382 241 2885ft 9kts
11-Mar-18 13:42 43.567762 -116.226100 293 2885ft 17kts
11-Mar-18 13:43 43.570352 -116.233780 293 2885ft 11kts
11-Mar-18 13:44 43.570065 -116.236337 140 2885ft 12kts
11-Mar-18 13:45 43.553720 -116.184297 110 3990ft 231kts
11-Mar-18 13:46 43.524840 -116.095691 113 7633ft 262kts
11-Mar-18 13:47 43.494527 -116.002769 113 11192ft 276kts
11-Mar-18 13:48 43.467993 -115.921727 113 13873ft 287kts
11-Mar-18 13:49 43.435558 -115.821110 114 16789ft 300kts
11-Mar-18 13:50 43.375420 -115.723418 177 19860ft 315kts
11-Mar-18 13:51 43.322492 -115.781349 261 21848ft 325kts
11-Mar-18 13:52 43.366010 -115.889403 311 23366ft 362kts
11-Mar-18 13:53 43.441578 -116.011192 310 25781ft 381kts
11-Mar-18 13:54 43.489394 -116.089175 310 27259ft 390kts
11-Mar-18 13:55 43.568686 -116.189002 344 29204ft 403kts
11-Mar-18 13:56 43.681496 -116.193554 359 31058ft 415kts
11-Mar-18 13:57 43.800137 -116.194567 359 31988ft 450kts
11-Mar-18 13:58 43.932477 -116.196069 359 31990ft 503kts
11-Mar-18 13:59 44.073921 -116.197814 359 31989ft 510kts
11-Mar-18 14:00 44.215241 -116.199298 359 31989ft 510kts
11-Mar-18 14:01 44.356924 -116.200950 359 31989ft 510kts
11-Mar-18 14:02 44.498322 -116.202656 359 31989ft 510kts
11-Mar-18 14:03 44.639187 -116.204421 359 31989ft 510kts
11-Mar-18 14:04 44.780247 -116.214719 350 31989ft 510kts
11-Mar-18 14:05 44.917311 -116.265446 343 31989ft 510kts
11-Mar-18 14:06 45.053175 -116.320378 343 31989ft 510kts
11-Mar-18 14:07 45.189309 -116.375474 343 31989ft 510kts
11-Mar-18 14:08 45.325548 -116.430865 343 31989ft 510kts
11-Mar-18 14:09 45.460921 -116.486181 343 31988ft 500kts
11-Mar-18 14:10 45.589061 -116.538752 344 31798ft 475kts
11-Mar-18 14:11 45.714373 -116.590349 343 29741ft 463kts
11-Mar-18 14:12 45.835747 -116.640641 344 27839ft 449kts
11-Mar-18 14:13 45.953039 -116.689366 343 25998ft 437kts
11-Mar-18 14:14 46.067514 -116.737208 343 24198ft 425kts
11-Mar-18 14:15 46.179187 -116.784081 343 22425ft 414kts
11-Mar-18 14:16 46.288073 -116.829969 343 20645ft 403kts
11-Mar-18 14:17 46.391330 -116.884142 328 18855ft 392kts
11-Mar-18 14:18 46.474767 -116.981938 320 17070ft 382kts
11-Mar-18 14:19 46.555443 -117.079660 320 16029ft 385kts
11-Mar-18 14:20 46.637617 -117.178408 320 15042ft 383kts
11-Mar-18 14:21 46.716268 -117.281053 315 14044ft 377kts
11-Mar-18 14:22 46.790560 -117.387753 315 13045ft 372kts
11-Mar-18 14:23 46.863578 -117.492307 315 12054ft 367kts
11-Mar-18 14:24 46.938130 -117.599353 315 11994ft 378kts
11-Mar-18 14:25 47.013064 -117.707386 315 11994ft 378kts
11-Mar-18 14:26 47.087637 -117.815345 315 11994ft 378kts
11-Mar-18 14:27 47.162913 -117.906548 350 11180ft 320kts
11-Mar-18 14:28 47.243652 -117.883615 14 10280ft 289kts
11-Mar-18 14:29 47.320239 -117.854434 14 9381ft 277kts
11-Mar-18 14:30 47.392395 -117.826890 14 8793ft 266kts
11-Mar-18 14:31 47.458247 -117.787044 42 7045ft 251kts
11-Mar-18 14:32 47.502071 -117.712803 45 5373ft 224kts
11-Mar-18 14:33 47.542039 -117.652668 45 4297ft 188kts
11-Mar-18 14:34 47.574913 -117.603170 45 3403ft 150kts
11-Mar-18 14:35 47.601608 -117.562885 45 2684ft 134kts
11-Mar-18 14:36 47.621180 -117.533486 44 2389ft 10kts
11-Mar-18 14:37 47.623796 -117.531101 15 2389ft 11kts
11-Mar-18 14:38 47.625246 -117.530825 4 2389ft 10kts
11-Mar-18 14:39 47.627832 -117.529183 38 2389ft 0kts

Navigation Log

Ident Type
Flight plan parsing failed, navigation log unavailable